Grimstead, Virginia
Current Conditions -  °F | °C
As of 1:15 AM on Wednesday 22 Oct 2014 (Local Time) from KW75 Reporting Station
Broken Clouds Broken Clouds  
Wind Chill: 55°   Ceiling: 2000
Heat Index: 55°   Visibility: 10mi
Dew Point: 51°   Wind: 12mph
Humidity: 85%   Direction: 340°NNW
Pressure: 29.84"   Gusts: 21mph
Location:  37.5°N, 76.3°W
Report Text: KW75 220515Z AUTO 34010G18KT 300V010 10SM BKN020 BKN100 BKN120 13/11 A2984 RMK AO1 T01300106
Loading
Personal Weather Stations






























Interactive Weather Map
Tropical Storm Tracking
New forecast layout! Learn more

10-Day Weather Forecast

Advertisements
Track Severe Weather on mobile